createdAt,value
2018-11-23T00:02:10.946Z,19.70
2018-11-23T00:04:38.642Z,20.37
2018-11-23T00:07:06.865Z,20.75
2018-11-23T00:09:34.282Z,20.20
2018-11-23T00:12:01.939Z,19.60
2018-11-23T00:14:29.473Z,19.60
2018-11-23T00:16:56.911Z,20.75
2018-11-23T00:19:24.315Z,18.37
2018-11-23T00:21:51.762Z,18.40
2018-11-23T00:24:19.214Z,19.35
2018-11-23T00:26:46.703Z,18.92
2018-11-23T00:29:16.106Z,19.65
2018-11-23T00:31:43.740Z,18.67
2018-11-23T00:34:11.183Z,21.07
2018-11-23T00:36:38.642Z,21.60
2018-11-23T00:39:06.905Z,21.52
2018-11-23T00:41:34.359Z,19.30
2018-11-23T00:44:01.977Z,20.52
2018-11-23T00:46:29.686Z,19.23
2018-11-23T00:48:57.113Z,18.80
2018-11-23T00:51:25.562Z,20.50
2018-11-23T00:53:53.006Z,19.87
2018-11-23T00:56:20.462Z,18.12
2018-11-23T00:58:48.003Z,18.65
2018-11-23T01:01:15.456Z,18.00
2018-11-23T01:03:42.916Z,17.98
2018-11-23T01:06:10.372Z,18.55
2018-11-23T01:08:44.981Z,19.45
2018-11-23T01:11:12.375Z,17.90
2018-11-23T01:13:41.303Z,18.15
2018-11-23T01:16:08.615Z,18.65
2018-11-23T01:18:35.927Z,17.67
2018-11-23T01:21:03.244Z,19.05
2018-11-23T01:23:30.553Z,17.70
2018-11-23T01:25:57.862Z,19.35
2018-11-23T01:28:25.264Z,17.50
2018-11-23T01:30:52.578Z,18.00
2018-11-23T01:33:19.870Z,18.07
2018-11-23T01:35:47.163Z,17.95
2018-11-23T01:38:14.472Z,17.67
2018-11-23T01:40:41.766Z,19.15
2018-11-23T01:43:09.228Z,19.50
2018-11-23T01:45:36.553Z,18.25
2018-11-23T01:48:04.219Z,19.82
2018-11-23T01:50:31.490Z,19.75
2018-11-23T01:52:59.122Z,18.95
2018-11-23T01:55:26.797Z,19.02
2018-11-23T01:57:54.094Z,20.60
2018-11-23T02:00:24.667Z,19.48
2018-11-23T02:02:52.726Z,20.43
2018-11-23T02:05:19.993Z,20.62
2018-11-23T02:07:47.580Z,19.55
2018-11-23T02:10:15.742Z,20.52
2018-11-23T02:12:43.102Z,18.60
2018-11-23T02:15:12.919Z,19.20
2018-11-23T02:17:40.406Z,20.15
2018-11-23T02:20:10.175Z,19.20
2018-11-23T02:22:37.658Z,19.82
2018-11-23T02:25:05.953Z,19.52
2018-11-23T02:27:33.478Z,18.37
2018-11-23T02:30:01.284Z,21.15
2018-11-23T02:32:28.735Z,20.32
2018-11-23T02:34:56.252Z,20.52
2018-11-23T02:37:23.707Z,19.77
2018-11-23T02:39:51.175Z,19.98
2018-11-23T02:42:18.622Z,19.67
2018-11-23T02:44:46.098Z,20.72
2018-11-23T02:47:13.634Z,19.40
2018-11-23T02:49:41.308Z,19.10
2018-11-23T02:52:08.816Z,18.35
2018-11-23T02:54:36.312Z,18.82
2018-11-23T02:57:05.058Z,19.87
2018-11-23T02:59:33.314Z,19.73
2018-11-23T03:02:00.692Z,18.48
2018-11-23T03:04:43.064Z,18.48
2018-11-23T03:07:10.327Z,17.90
2018-11-23T03:09:37.575Z,17.15
2018-11-23T03:12:04.841Z,17.73
2018-11-23T03:14:32.102Z,18.70
2018-11-23T03:16:59.551Z,17.87
2018-11-23T03:19:26.812Z,16.60
2018-11-23T03:21:54.046Z,16.37
2018-11-23T03:24:21.299Z,18.48
2018-11-23T03:26:48.540Z,18.20
2018-11-23T03:29:15.796Z,17.40
2018-11-23T03:31:43.046Z,16.95
2018-11-23T03:34:10.456Z,17.48
2018-11-23T03:36:37.758Z,17.57
2018-11-23T03:39:07.463Z,18.15
2018-11-23T03:41:34.831Z,17.65
2018-11-23T03:44:02.259Z,16.77
2018-11-23T03:46:30.826Z,16.32
2018-11-23T03:48:58.155Z,17.40
2018-11-23T03:51:25.471Z,17.07
2018-11-23T03:53:52.776Z,18.48
2018-11-23T03:56:20.086Z,16.95
2018-11-23T03:58:47.528Z,16.48
2018-11-23T04:01:15.119Z,17.70
2018-11-23T04:03:42.426Z,17.62
2018-11-23T04:06:09.743Z,17.45
2018-11-23T04:08:38.207Z,18.60
2018-11-23T04:11:05.579Z,18.55
2018-11-23T04:13:32.903Z,18.05
2018-11-23T04:16:00.532Z,17.70
2018-11-23T04:18:27.835Z,17.65
2018-11-23T04:20:58.204Z,19.48
2018-11-23T04:23:25.527Z,18.02
2018-11-23T04:25:52.850Z,20.95
2018-11-23T04:28:20.215Z,22.02
2018-11-23T04:30:47.539Z,19.48
2018-11-23T04:33:14.890Z,20.05
2018-11-23T04:35:42.240Z,19.37
2018-11-23T04:38:09.582Z,21.70
2018-11-23T04:40:37.039Z,19.12
2018-11-23T04:43:04.720Z,19.65
2018-11-23T04:45:32.038Z,21.15
2018-11-23T04:47:59.342Z,20.12
2018-11-23T04:50:26.708Z,18.90
2018-11-23T04:52:54.050Z,19.60
2018-11-23T04:55:21.376Z,20.05
2018-11-23T04:57:53.645Z,20.23
2018-11-23T05:00:17.023Z,20.32
2018-11-23T05:02:45.798Z,20.70
2018-11-23T05:05:13.563Z,19.70
2018-11-23T05:07:42.249Z,18.95
2018-11-23T05:10:11.242Z,19.77
2018-11-23T05:12:38.903Z,19.17
2018-11-23T05:15:08.007Z,18.30
2018-11-23T05:17:35.771Z,19.75
2018-11-23T05:20:03.667Z,21.40
2018-11-23T05:22:31.191Z,19.32
2018-11-23T05:24:58.725Z,20.68
2018-11-23T05:27:26.231Z,18.90
2018-11-23T05:29:53.792Z,21.52
2018-11-23T05:32:21.358Z,19.55
2018-11-23T05:34:49.144Z,18.60
2018-11-23T05:37:17.546Z,20.52
2018-11-23T05:39:44.874Z,20.02
2018-11-23T05:42:12.395Z,18.95
2018-11-23T05:44:40.063Z,18.55
2018-11-23T05:47:07.627Z,19.62
2018-11-23T05:49:35.110Z,19.60
2018-11-23T05:52:02.635Z,19.23
2018-11-23T05:54:30.234Z,18.57
2018-11-23T05:56:57.764Z,17.35
2018-11-23T05:59:25.271Z,19.10
2018-11-23T06:01:53.070Z,19.52
2018-11-23T06:04:20.596Z,20.02
2018-11-23T06:06:48.131Z,18.98
2018-11-23T06:09:15.637Z,18.02
2018-11-23T06:11:43.155Z,19.23
2018-11-23T06:14:10.647Z,18.92
2018-11-23T06:16:38.179Z,20.95
2018-11-23T06:19:05.708Z,18.95
2018-11-23T06:21:33.207Z,19.57
2018-11-23T06:24:01.748Z,20.65
2018-11-23T06:26:30.018Z,20.60
2018-11-23T06:28:57.527Z,20.82
2018-11-23T06:31:25.827Z,19.82
2018-11-23T06:33:53.343Z,20.50
2018-11-23T06:36:20.903Z,20.85
2018-11-23T06:38:48.547Z,19.95
2018-11-23T06:41:16.143Z,18.30
2018-11-23T06:43:43.910Z,21.33
2018-11-23T06:46:12.114Z,19.23
2018-11-23T06:48:39.645Z,20.97
2018-11-23T06:51:08.259Z,18.67
2018-11-23T06:53:35.647Z,19.77
2018-11-23T06:56:03.983Z,20.25
2018-11-23T06:58:31.496Z,21.55
2018-11-23T07:00:59.063Z,20.32
2018-11-23T07:03:26.878Z,20.43
2018-11-23T07:05:54.737Z,20.65
2018-11-23T07:08:22.809Z,21.75
2018-11-23T07:10:50.303Z,20.05
2018-11-23T07:13:17.825Z,20.08
2018-11-23T07:15:45.395Z,21.73
2018-11-23T07:18:13.330Z,21.87
2018-11-23T07:20:41.558Z,18.95
2018-11-23T07:23:09.903Z,21.10
2018-11-23T07:25:37.408Z,21.68
2018-11-23T07:28:04.963Z,21.00
2018-11-23T07:30:32.507Z,23.25
2018-11-23T07:33:00.226Z,21.45
2018-11-23T07:35:27.723Z,24.98
2018-11-23T07:37:55.259Z,21.97
2018-11-23T07:40:37.179Z,22.90
2018-11-23T07:43:04.719Z,23.77
2018-11-23T07:45:32.257Z,23.30
2018-11-23T07:48:00.072Z,21.37
2018-11-23T07:50:27.518Z,22.05
2018-11-23T07:52:55.486Z,22.42
2018-11-23T07:55:23.039Z,20.08
2018-11-23T07:57:50.797Z,22.60
2018-11-23T08:00:19.684Z,20.72
2018-11-23T08:02:47.567Z,21.05
2018-11-23T08:05:16.036Z,20.27
2018-11-23T08:07:43.564Z,21.30
2018-11-23T08:10:12.665Z,20.77
2018-11-23T08:12:44.251Z,20.40
2018-11-23T08:15:15.593Z,20.97
2018-11-23T08:17:43.104Z,20.72
2018-11-23T08:20:12.867Z,20.65
2018-11-23T08:22:40.903Z,19.25
2018-11-23T08:25:11.675Z,20.45
2018-11-23T08:27:39.637Z,25.55
2018-11-23T08:30:09.471Z,27.80
2018-11-23T08:32:37.831Z,25.10
2018-11-23T08:35:05.795Z,24.90
2018-11-23T08:37:39.491Z,26.45
2018-11-23T08:40:13.912Z,26.48
2018-11-23T08:42:41.794Z,26.77
2018-11-23T08:45:12.537Z,25.88
2018-11-23T08:47:41.046Z,25.10
2018-11-23T08:50:10.712Z,24.57
2018-11-23T08:52:38.277Z,24.00
2018-11-23T08:55:06.348Z,25.52
2018-11-23T08:57:33.824Z,29.75
2018-11-23T09:00:04.315Z,25.72
2018-11-23T09:02:31.879Z,27.13
2018-11-23T09:04:59.509Z,25.12
2018-11-23T09:07:27.187Z,23.00
2018-11-23T09:09:54.693Z,25.17
2018-11-23T09:12:26.023Z,23.90
2018-11-23T09:14:53.503Z,24.50
2018-11-23T09:17:21.083Z,22.35
2018-11-23T09:19:48.567Z,23.73
2018-11-23T09:22:23.192Z,22.20
2018-11-23T09:24:44.466Z,23.73
2018-11-23T09:27:12.257Z,26.52
2018-11-23T09:29:39.757Z,24.60
2018-11-23T09:32:07.417Z,23.85
2018-11-23T09:34:34.903Z,23.73
2018-11-23T09:37:02.339Z,25.62
2018-11-23T09:39:29.947Z,23.32
2018-11-23T09:42:01.095Z,24.37
2018-11-23T09:44:28.573Z,24.60
2018-11-23T09:46:56.052Z,22.10
2018-11-23T09:49:23.560Z,23.25
2018-11-23T09:51:51.027Z,23.80
2018-11-23T09:54:18.511Z,23.90
2018-11-23T09:56:47.627Z,23.02
2018-11-23T09:59:15.141Z,22.27
2018-11-23T10:01:42.644Z,23.35
2018-11-23T10:04:10.171Z,22.50
2018-11-23T10:06:37.845Z,23.75
2018-11-23T10:09:06.842Z,22.27
2018-11-23T10:11:36.373Z,25.25
2018-11-23T10:14:04.115Z,22.62
2018-11-23T10:16:31.607Z,23.05
2018-11-23T10:18:59.099Z,22.73
2018-11-23T10:21:26.599Z,21.67
2018-11-23T10:23:54.119Z,23.80
2018-11-23T10:26:24.489Z,23.90
2018-11-23T10:28:52.079Z,21.40
2018-11-23T10:31:19.605Z,21.50
2018-11-23T10:33:47.063Z,22.00
2018-11-23T10:36:14.787Z,23.07
2018-11-23T10:38:42.284Z,22.17
2018-11-23T10:41:12.742Z,21.80
2018-11-23T10:43:40.372Z,23.33
2018-11-23T10:46:07.888Z,21.60
2018-11-23T10:48:35.371Z,21.10
2018-11-23T10:51:02.924Z,23.07
2018-11-23T10:53:30.394Z,23.17
2018-11-23T10:56:00.104Z,23.20
2018-11-23T10:58:27.646Z,23.47
2018-11-23T11:01:00.750Z,23.63
2018-11-23T11:03:34.791Z,22.20
2018-11-23T11:06:12.399Z,21.93
2018-11-23T11:08:40.399Z,22.30
2018-11-23T11:11:08.398Z,20.90
2018-11-23T11:13:35.973Z,22.33
2018-11-23T11:16:03.458Z,19.50
2018-11-23T11:18:32.435Z,20.77
2018-11-23T11:21:00.086Z,22.10
2018-11-23T11:23:27.667Z,22.50
2018-11-23T11:25:55.227Z,20.90
2018-11-23T11:28:22.691Z,23.90
2018-11-23T11:30:50.183Z,21.40
2018-11-23T11:33:22.771Z,20.37
2018-11-23T11:35:50.267Z,22.63
2018-11-23T11:38:17.766Z,22.07
2018-11-23T11:40:45.252Z,23.77
2018-11-23T11:43:12.847Z,23.50
2018-11-23T11:45:40.502Z,23.10
2018-11-23T11:48:12.419Z,22.57
2018-11-23T11:50:39.891Z,23.50
2018-11-23T11:53:07.691Z,23.33
2018-11-23T11:55:35.201Z,22.33
2018-11-23T11:58:03.009Z,21.70
2018-11-23T12:00:35.431Z,20.97
2018-11-23T12:03:02.974Z,21.60
2018-11-23T12:05:30.535Z,21.53
2018-11-23T12:07:58.083Z,22.17
2018-11-23T12:10:26.001Z,20.77
2018-11-23T12:12:56.590Z,21.73
2018-11-23T12:15:25.500Z,20.60
2018-11-23T12:17:53.068Z,21.03
2018-11-23T12:20:22.165Z,21.00
2018-11-23T12:22:50.091Z,20.33
2018-11-23T12:25:21.918Z,22.17
2018-11-23T12:27:49.651Z,22.27
2018-11-23T12:30:18.498Z,21.43
2018-11-23T12:32:47.103Z,21.90
2018-11-23T12:35:15.509Z,21.10
2018-11-23T12:37:46.292Z,20.03
2018-11-23T12:40:14.871Z,20.43
2018-11-23T12:42:42.940Z,20.63
2018-11-23T12:45:12.549Z,21.37
2018-11-23T12:47:40.032Z,20.70
2018-11-23T12:50:12.067Z,19.40
2018-11-23T12:52:39.557Z,19.60
2018-11-23T12:55:07.534Z,20.57
2018-11-23T12:57:35.008Z,20.00
2018-11-23T13:00:02.934Z,22.00
2018-11-23T13:02:35.014Z,20.50
2018-11-23T13:05:02.523Z,20.27
2018-11-23T13:07:30.017Z,19.40
2018-11-23T13:09:57.611Z,21.33
2018-11-23T13:12:25.105Z,19.17
2018-11-23T13:14:53.379Z,20.20
2018-11-23T13:17:22.703Z,21.40
2018-11-23T13:19:50.215Z,21.73
2018-11-23T13:22:17.680Z,19.40
2018-11-23T13:24:45.155Z,18.90
2018-11-23T13:27:13.632Z,18.13
2018-11-23T13:29:41.452Z,18.23
2018-11-23T13:32:11.372Z,18.80
2018-11-23T13:34:38.921Z,20.30
2018-11-23T13:37:06.558Z,21.07
2018-11-23T13:39:34.115Z,18.57
2018-11-23T13:42:02.052Z,19.97
2018-11-23T13:44:29.568Z,20.13
2018-11-23T13:46:59.108Z,23.53
2018-11-23T13:49:26.918Z,20.43
2018-11-23T13:51:54.411Z,18.40
2018-11-23T13:54:21.890Z,18.53
2018-11-23T13:56:49.491Z,21.10
2018-11-23T13:59:16.971Z,20.13
2018-11-23T14:01:45.799Z,21.20
2018-11-23T14:04:13.400Z,19.90
2018-11-23T14:06:41.083Z,20.97
2018-11-23T14:09:09.775Z,21.80
2018-11-23T14:11:37.921Z,19.23
2018-11-23T14:14:05.401Z,18.80
2018-11-23T14:16:36.740Z,19.43
2018-11-23T14:19:04.578Z,19.20
2018-11-23T14:21:32.119Z,20.83
2018-11-23T14:24:00.243Z,19.40
2018-11-23T14:26:27.705Z,19.67
2018-11-23T14:28:55.176Z,17.80
2018-11-23T14:31:25.586Z,17.87
2018-11-23T14:33:53.164Z,18.87
2018-11-23T14:36:20.643Z,19.73
2018-11-23T14:38:48.191Z,18.50
2018-11-23T14:41:15.722Z,18.90
2018-11-23T14:43:46.589Z,19.13
2018-11-23T14:46:15.284Z,18.67
2018-11-23T14:48:42.770Z,19.80
2018-11-23T14:51:10.251Z,18.93
2018-11-23T14:53:37.740Z,19.27
2018-11-23T14:56:05.314Z,19.60
2018-11-23T14:58:32.827Z,20.53
2018-11-23T15:01:00.427Z,20.07
2018-11-23T15:03:28.157Z,20.83
2018-11-23T15:05:55.640Z,20.70
2018-11-23T15:08:23.128Z,20.20
2018-11-23T15:10:50.634Z,18.80
2018-11-23T15:13:20.066Z,23.07
2018-11-23T15:15:47.731Z,20.20
2018-11-23T15:18:15.244Z,20.60
2018-11-23T15:20:44.429Z,22.10
2018-11-23T15:23:14.595Z,19.90
2018-11-23T15:25:42.665Z,21.10
2018-11-23T15:28:11.557Z,20.20
2018-11-23T15:30:40.122Z,21.07
2018-11-23T15:33:09.259Z,19.47
2018-11-23T15:35:37.340Z,20.97
2018-11-23T15:38:10.280Z,19.43
2018-11-23T15:40:34.039Z,19.13
2018-11-23T15:43:03.258Z,20.20
2018-11-23T15:45:31.613Z,19.37
2018-11-23T15:47:59.695Z,22.10
2018-11-23T15:50:28.959Z,21.43
2018-11-23T15:52:56.446Z,21.40
2018-11-23T15:55:26.562Z,21.60
2018-11-23T15:57:55.642Z,21.10
2018-11-23T16:00:28.347Z,21.20
2018-11-23T16:02:55.929Z,20.60
2018-11-23T16:05:23.810Z,21.00
2018-11-23T16:07:52.626Z,21.00
2018-11-23T16:10:23.421Z,21.73
2018-11-23T16:12:52.370Z,22.93
2018-11-23T16:15:20.878Z,22.32
2018-11-23T16:17:48.848Z,21.07
2018-11-23T16:20:24.712Z,21.75
2018-11-23T16:22:53.658Z,22.00
2018-11-23T16:25:21.184Z,22.05
2018-11-23T16:27:50.541Z,22.42
2018-11-23T16:30:20.149Z,22.62
2018-11-23T16:32:48.814Z,23.27
2018-11-23T16:35:17.693Z,23.22
2018-11-23T16:37:45.386Z,24.32
2018-11-23T16:40:14.252Z,22.05
2018-11-23T16:42:41.897Z,21.57
2018-11-23T16:45:12.175Z,23.50
2018-11-23T16:47:39.631Z,22.42
2018-11-23T16:50:07.827Z,24.23
2018-11-23T16:52:35.311Z,23.10
2018-11-23T16:55:05.558Z,23.00
2018-11-23T16:57:33.049Z,20.55
2018-11-23T17:00:00.815Z,22.25
2018-11-23T17:02:29.498Z,22.13
2018-11-23T17:04:56.957Z,23.80
2018-11-23T17:07:24.456Z,22.37
2018-11-23T17:09:52.429Z,24.35
2018-11-23T17:12:19.911Z,22.32
2018-11-23T17:14:47.182Z,22.42
2018-11-23T17:17:14.718Z,23.70
2018-11-23T17:19:42.484Z,22.40
2018-11-23T17:22:09.979Z,22.65
2018-11-23T17:24:37.778Z,22.93
2018-11-23T17:27:05.347Z,24.10
2018-11-23T17:29:34.037Z,23.15
2018-11-23T17:32:00.767Z,23.50
2018-11-23T17:34:28.261Z,22.90
2018-11-23T17:36:55.887Z,24.60
2018-11-23T17:39:23.414Z,29.30
2018-11-23T17:41:50.972Z,27.00
2018-11-23T17:44:18.431Z,27.13
2018-11-23T17:46:48.050Z,26.60
2018-11-23T17:49:15.547Z,24.65
2018-11-23T17:51:43.051Z,26.10
2018-11-23T17:54:10.567Z,27.90
2018-11-23T17:56:38.063Z,28.12
2018-11-23T17:59:05.515Z,29.02
2018-11-23T18:01:32.968Z,28.20
2018-11-23T18:04:00.622Z,31.62
2018-11-23T18:06:28.125Z,31.73
2018-11-23T18:08:55.610Z,27.85
2018-11-23T18:11:23.111Z,29.20
2018-11-23T18:13:50.587Z,29.72
2018-11-23T18:16:18.064Z,30.65
2018-11-23T18:18:45.746Z,30.37
2018-11-23T18:21:13.233Z,28.27
2018-11-23T18:23:40.804Z,30.65
2018-11-23T18:26:08.232Z,30.97
2018-11-23T18:28:35.735Z,31.77
2018-11-23T18:31:03.523Z,29.57
2018-11-23T18:33:31.039Z,28.23
2018-11-23T18:35:58.531Z,32.65
2018-11-23T18:38:25.988Z,30.00
2018-11-23T18:40:53.479Z,28.05
2018-11-23T18:43:21.310Z,27.77
2018-11-23T18:45:48.775Z,27.98
2018-11-23T18:48:16.334Z,31.45
2018-11-23T18:50:43.863Z,29.07
2018-11-23T18:53:11.551Z,27.20
2018-11-23T18:55:39.066Z,29.55
2018-11-23T18:58:06.754Z,30.72
2018-11-23T19:00:34.484Z,29.65
2018-11-23T19:03:01.996Z,28.17
2018-11-23T19:05:29.501Z,29.82
2018-11-23T19:07:57.002Z,31.07
2018-11-23T19:10:24.458Z,30.08
2018-11-23T19:12:52.412Z,33.92
2018-11-23T19:15:25.328Z,29.27
2018-11-23T19:17:47.443Z,30.32
2018-11-23T19:20:19.078Z,28.45
2018-11-23T19:22:49.402Z,27.77
2018-11-23T19:25:16.904Z,30.37
2018-11-23T19:27:44.604Z,28.40
2018-11-23T19:30:14.921Z,26.17
2018-11-23T19:32:42.330Z,27.82
2018-11-23T19:35:09.707Z,27.05
2018-11-23T19:37:37.213Z,27.85
2018-11-23T19:40:07.875Z,28.42
2018-11-23T19:42:35.163Z,27.60
2018-11-23T19:45:02.509Z,27.75
2018-11-23T19:47:30.016Z,25.37
2018-11-23T19:49:57.583Z,31.27
2018-11-23T19:52:25.055Z,28.87
2018-11-23T19:54:52.578Z,30.90
2018-11-23T19:57:20.059Z,27.87
2018-11-23T19:59:47.609Z,27.17
2018-11-23T20:02:15.100Z,27.02
2018-11-23T20:04:42.735Z,28.85
2018-11-23T20:07:10.294Z,27.75
2018-11-23T20:09:40.007Z,29.20
2018-11-23T20:12:05.788Z,29.20
2018-11-23T20:14:33.260Z,28.85
2018-11-23T20:17:01.481Z,28.07
2018-11-23T20:19:29.083Z,26.95
2018-11-23T20:21:56.731Z,27.45
2018-11-23T20:24:24.259Z,27.40
2018-11-23T20:26:51.815Z,28.40
2018-11-23T20:29:19.350Z,27.55
2018-11-23T20:31:46.836Z,27.70
2018-11-23T20:34:14.322Z,27.60
2018-11-23T20:36:41.897Z,26.48
2018-11-23T20:39:09.623Z,29.00
2018-11-23T20:41:37.723Z,28.12
2018-11-23T20:44:05.971Z,28.75
2018-11-23T20:46:33.960Z,29.70
2018-11-23T20:49:01.504Z,27.17
2018-11-23T20:51:28.983Z,27.02
2018-11-23T20:53:56.569Z,27.75
2018-11-23T20:56:24.056Z,29.10
2018-11-23T20:58:51.522Z,26.50
2018-11-23T21:01:19.011Z,26.42
2018-11-23T21:03:46.527Z,32.15
2018-11-23T21:06:14.014Z,29.67
2018-11-23T21:08:41.706Z,29.45
2018-11-23T21:11:09.193Z,29.90
2018-11-23T21:13:37.725Z,30.57
2018-11-23T21:16:05.216Z,28.17
2018-11-23T21:18:32.794Z,30.12
2018-11-23T21:21:00.393Z,30.30
2018-11-23T21:23:27.920Z,30.62
2018-11-23T21:25:55.406Z,30.10
2018-11-23T21:28:22.942Z,31.10
2018-11-23T21:30:50.855Z,29.70
2018-11-23T21:33:18.774Z,32.50
2018-11-23T21:35:46.390Z,33.10
2018-11-23T21:38:13.907Z,30.17
2018-11-23T21:40:44.533Z,31.80
2018-11-23T21:43:09.218Z,30.82
2018-11-23T21:45:36.857Z,31.85
2018-11-23T21:48:04.483Z,30.72
2018-11-23T21:50:32.642Z,32.90
2018-11-23T21:53:00.131Z,32.53
2018-11-23T21:55:27.731Z,31.37
2018-11-23T21:57:55.697Z,31.27
2018-11-23T22:00:23.211Z,30.23
2018-11-23T22:02:50.720Z,33.28
2018-11-23T22:05:18.311Z,32.08
2018-11-23T22:07:45.981Z,30.32
2018-11-23T22:10:16.154Z,32.70
2018-11-23T22:12:43.686Z,34.33
2018-11-23T22:15:13.383Z,33.63
2018-11-23T22:17:41.454Z,32.60
2018-11-23T22:20:11.773Z,32.88
2018-11-23T22:22:39.282Z,31.48
2018-11-23T22:25:09.097Z,28.73
2018-11-23T22:27:36.580Z,28.98
2018-11-23T22:30:08.031Z,27.98
2018-11-23T22:32:35.564Z,30.90
2018-11-23T22:35:03.607Z,28.45
2018-11-23T22:37:31.648Z,29.18
2018-11-23T22:39:58.937Z,27.50
2018-11-23T22:42:26.369Z,27.70
2018-11-23T22:44:54.103Z,27.93
2018-11-23T22:47:21.402Z,27.73
2018-11-23T22:49:48.848Z,28.35
2018-11-23T22:52:16.127Z,31.15
2018-11-23T22:54:43.494Z,26.93
2018-11-23T22:57:11.873Z,28.60
2018-11-23T22:59:38.203Z,27.95
2018-11-23T23:02:05.572Z,27.85
2018-11-23T23:04:32.838Z,27.98
2018-11-23T23:07:00.994Z,29.05
2018-11-23T23:09:28.295Z,28.40
2018-11-23T23:11:55.598Z,29.45
2018-11-23T23:14:23.004Z,29.10
2018-11-23T23:16:50.264Z,28.80
2018-11-23T23:19:17.657Z,27.77
2018-11-23T23:21:45.079Z,29.02
2018-11-23T23:24:12.368Z,27.13
2018-11-23T23:26:39.752Z,26.25
2018-11-23T23:29:07.234Z,28.35
2018-11-23T23:31:34.636Z,28.85
2018-11-23T23:34:02.028Z,27.95
2018-11-23T23:36:29.335Z,26.80
2018-11-23T23:38:56.602Z,26.82
2018-11-23T23:41:24.142Z,25.95
2018-11-23T23:43:52.305Z,27.20
2018-11-23T23:46:21.059Z,24.65
2018-11-23T23:48:49.934Z,25.27
2018-11-23T23:51:17.993Z,25.82
2018-11-23T23:53:46.328Z,24.32
2018-11-23T23:56:14.573Z,27.27
2018-11-23T23:58:43.185Z,24.43
